Silver Shadow — C6FN6 — position and weather

sailwx.info

Track history (hours):
 
Tides and Currents Weather Stations Pressure Air Temp Water Temp Dewpoint Dewpoint Depression Visibility Wind Speed Wind Dir Waves Ship Positions

Silver Shadow

Operator: V Ships Leisure SAM

Last reported at 2017-Aug-18 22:11 UTC. Time now 2017-Aug-20 15:37 UTC.
Position N 51°47' W 129°39'.

Length 186 m; draft 6.1 m.

Type: Ship. MMSI: 308628000.

Date/timePositionNaut miles runAvg speedWind from/ knotsBaromVisibWave heightAir tempDewpointWater temp
2017-Aug-18 22:11N 51°47' W 129°39'213.9
2017-Aug-18 22:00N 51°46' W 129°35'713.8
2017-Aug-18 21:30N 51°42' W 129°26'713.6
2017-Aug-18 21:00N 51°39' W 129°17'714.1
2017-Aug-18 20:30N 51°35' W 129°08'713.7
2017-Aug-18 20:00N 51°31' W 128°58'713.9
2017-Aug-18 19:30N 51°27' W 128°49'713.8
2017-Aug-18 19:00N 51°23' W 128°40'713.8
2017-Aug-18 18:30N 51°19' W 128°31'713.8
2017-Aug-18 18:00N 51°15' W 128°22'713.8
2017-Aug-18 17:30N 51°11' W 128°13'814.7
2017-Aug-18 16:59N 51°07' W 128°03'713.9
2017-Aug-18 16:30N 51°03' W 127°54'713.7
2017-Aug-18 16:00N 50°59' W 127°46'714.0
2017-Aug-18 15:30N 50°54' W 127°37'816.5
2017-Aug-18 15:00N 50°50' W 127°26'816.8
2017-Aug-18 14:30N 50°46' W 127°14'1916.3
2017-Aug-18 13:20N 50°38' W 126°47'714.8
2017-Aug-18 12:52N 50°32' W 126°41'714.6
2017-Aug-18 12:23N 50°30' W 126°30'2216.2
2017-Aug-18 11:03N 50°25' W 125°58'715.3
2017-Aug-18 10:37N 50°23' W 125°48'316.5
2017-Aug-18 10:27N 50°22' W 125°43'815.7
2017-Aug-18 09:55N 50°21' W 125°31'613.6
2017-Aug-18 09:30N 50°17' W 125°24'816.4
2017-Aug-18 09:01N 50°09' W 125°21'611.6
2017-Aug-18 08:30N 50°05' W 125°16'510.8
2017-Aug-18 08:00N 49°60' W 125°12'611.3
2017-Aug-18 07:31N 49°56' W 125°06'612.1
2017-Aug-18 07:01N 49°52' W 124°58'612.2
2017-Aug-18 06:30N 49°48' W 124°52'612.4
2017-Aug-18 06:00N 49°43' W 124°46'612.6
2017-Aug-18 05:30N 49°38' W 124°39'612.4
2017-Aug-18 05:00N 49°34' W 124°32'612.6
2017-Aug-18 04:30N 49°29' W 124°27'612.5
2017-Aug-18 04:00N 49°26' W 124°18'612.6
2017-Aug-18 03:31N 49°24' W 124°10'612.6
2017-Aug-18 03:00N 49°22' W 124°01'612.4
2017-Aug-18 02:30N 49°20' W 123°51'612.1
2017-Aug-18 02:01N 49°20' W 123°42'612.8
2017-Aug-18 01:31N 49°20' W 123°32'612.6
2017-Aug-18 01:00N 49°19' W 123°23'612.4
2017-Aug-18 00:30N 49°19' W 123°13'5 9.2
2017-Aug-18 00:01N 49°18' W 123°06'1 1.1
2017-Aug-17 23:28N 49°17' W 123°07'0 0.0
2017-Aug-17 22:58N 49°17' W 123°07'0 0.0
2017-Aug-17 22:28N 49°17' W 123°07'0 0.0
2017-Aug-17 21:58N 49°17' W 123°07'0 0.0
2017-Aug-17 21:28N 49°17' W 123°07'0 0.0
2017-Aug-17 20:58N 49°17' W 123°07'0 0.0
2017-Aug-17 20:28N 49°17' W 123°07'0 0.0
2017-Aug-17 19:58N 49°17' W 123°07'0 0.0
2017-Aug-17 19:19N 49°17' W 123°07'0 0.0
2017-Aug-17 18:55N 49°17' W 123°07'0 0.0
2017-Aug-17 18:25N 49°17' W 123°07'0 0.0
2017-Aug-17 17:58N 49°17' W 123°07'0 0.1
2017-Aug-17 17:28N 49°17' W 123°07'0 0.1
2017-Aug-17 16:58N 49°17' W 123°07'0 0.0
2017-Aug-17 16:28N 49°17' W 123°07'0 0.0
2017-Aug-17 15:55N 49°17' W 123°07'0 0.0
2017-Aug-17 15:28N 49°17' W 123°07'0 0.0
2017-Aug-17 14:55N 49°17' W 123°07'0 0.0
2017-Aug-17 14:28N 49°17' W 123°07'0 0.3
2017-Aug-17 14:00N 49°17' W 123°06'2 4.0
2017-Aug-17 13:30N 49°19' W 123°08'510.1
2017-Aug-17 13:00N 49°18' W 123°16'510.6
2017-Aug-17 12:30N 49°19' W 123°24'510.6
2017-Aug-17 12:00N 49°19' W 123°32'510.6
2017-Aug-17 11:30N 49°19' W 123°40'510.5
2017-Aug-17 11:00N 49°19' W 123°49'510.9
2017-Aug-17 10:30N 49°21' W 123°57'510.8
2017-Aug-17 10:00N 49°23' W 124°04'510.5
2017-Aug-17 09:30N 49°24' W 124°12'510.7
2017-Aug-17 09:00N 49°26' W 124°20'510.7
2017-Aug-17 08:30N 49°29' W 124°27'510.9
2017-Aug-17 08:00N 49°33' W 124°32'510.5
2017-Aug-17 07:30N 49°37' W 124°37'510.6
2017-Aug-17 07:00N 49°40' W 124°43'510.5
2017-Aug-17 06:30N 49°45' W 124°46'510.5
2017-Aug-17 06:00N 49°49' W 124°51'510.8
2017-Aug-17 05:30N 49°53' W 124°58'510.7
2017-Aug-17 05:00N 49°56' W 125°05'510.5
2017-Aug-17 04:30N 49°59' W 125°11'510.6
2017-Aug-17 04:00N 50°04' W 125°15'510.5
2017-Aug-17 03:30N 50°07' W 125°21'612.6
2017-Aug-17 03:00N 50°13' W 125°23'714.4
2017-Aug-17 02:30N 50°20' W 125°27'714.4
2017-Aug-17 02:00N 50°22' W 125°38'1314.7
2017-Aug-17 01:07N 50°25' W 125°58'1614.5
2017-Aug-17 00:01N 50°30' W 126°22'415.0
2017-Aug-16 23:47N 50°30' W 126°27'1313.1
2017-Aug-16 22:47N 50°37' W 126°45'414.3
2017-Aug-16 22:29N 50°39' W 126°50'815.4
2017-Aug-16 21:59N 50°43' W 127°01'715.6
2017-Aug-16 21:30N 50°45' W 127°12'815.6
2017-Aug-16 21:00N 50°48' W 127°23'815.7
2017-Aug-16 20:30N 50°52' W 127°34'815.5
2017-Aug-16 20:00N 50°57' W 127°44'713.4
2017-Aug-16 19:31N 51°01' W 127°52'714.3
2017-Aug-16 19:00N 51°05' W 128°02'713.9
2017-Aug-16 18:30N 51°09' W 128°10'713.9
2017-Aug-16 18:00N 51°13' W 128°19'714.0
2017-Aug-16 17:31N 51°18' W 128°28'714.1
2017-Aug-16 17:00N 51°22' W 128°37'714.0
2017-Aug-16 16:30N 51°26' W 128°46'714.0
2017-Aug-16 16:00N 51°30' W 128°56'714.0
2017-Aug-16 15:30N 51°34' W 129°05'816.2
2017-Aug-16 15:00N 51°38' W 129°16'816.1
2017-Aug-16 14:30N 51°43' W 129°27'  
2017-Aug-13 10:00N 58°12' W 135°26'814.9
2017-Aug-13 09:29N 58°16' W 135°38'714.6
2017-Aug-13 09:00N 58°19' W 135°50'714.5
2017-Aug-13 08:31N 58°20' W 136°04'121 4.2
2017-Aug-12 03:27N 59°14' W 139°33'  
Track history (hours):
 
Tides and Currents Weather Stations Pressure Air Temp Water Temp Dewpoint Dewpoint Depression Visibility Wind Speed Wind Dir Waves Ship Positions

Silver Shadow

Operator: V Ships Leisure SAM

Last reported at 2017-Aug-18 22:11 UTC. Time now 2017-Aug-20 15:37 UTC.
Position N 51°47' W 129°39'.

Length 186 m; draft 6.1 m.

Type: Ship. MMSI: 308628000.

Date/timePositionNaut miles runAvg speedWind from/ knotsBaromVisibWave heightAir tempDewpointWater temp
2017-Aug-18 22:11N 51°47' W 129°39'213.9
2017-Aug-18 22:00N 51°46' W 129°35'713.8
2017-Aug-18 21:30N 51°42' W 129°26'713.6
2017-Aug-18 21:00N 51°39' W 129°17'714.1
2017-Aug-18 20:30N 51°35' W 129°08'713.7
2017-Aug-18 20:00N 51°31' W 128°58'713.9
2017-Aug-18 19:30N 51°27' W 128°49'713.8
2017-Aug-18 19:00N 51°23' W 128°40'713.8
2017-Aug-18 18:30N 51°19' W 128°31'713.8
2017-Aug-18 18:00N 51°15' W 128°22'713.8
2017-Aug-18 17:30N 51°11' W 128°13'814.7
2017-Aug-18 16:59N 51°07' W 128°03'713.9
2017-Aug-18 16:30N 51°03' W 127°54'713.7
2017-Aug-18 16:00N 50°59' W 127°46'714.0
2017-Aug-18 15:30N 50°54' W 127°37'816.5
2017-Aug-18 15:00N 50°50' W 127°26'816.8
2017-Aug-18 14:30N 50°46' W 127°14'1916.3
2017-Aug-18 13:20N 50°38' W 126°47'714.8
2017-Aug-18 12:52N 50°32' W 126°41'714.6
2017-Aug-18 12:23N 50°30' W 126°30'2216.2
2017-Aug-18 11:03N 50°25' W 125°58'715.3
2017-Aug-18 10:37N 50°23' W 125°48'316.5
2017-Aug-18 10:27N 50°22' W 125°43'815.7
2017-Aug-18 09:55N 50°21' W 125°31'613.6
2017-Aug-18 09:30N 50°17' W 125°24'816.4
2017-Aug-18 09:01N 50°09' W 125°21'611.6
2017-Aug-18 08:30N 50°05' W 125°16'510.8
2017-Aug-18 08:00N 49°60' W 125°12'611.3
2017-Aug-18 07:31N 49°56' W 125°06'612.1
2017-Aug-18 07:01N 49°52' W 124°58'612.2
2017-Aug-18 06:30N 49°48' W 124°52'612.4
2017-Aug-18 06:00N 49°43' W 124°46'612.6
2017-Aug-18 05:30N 49°38' W 124°39'612.4
2017-Aug-18 05:00N 49°34' W 124°32'612.6
2017-Aug-18 04:30N 49°29' W 124°27'612.5
2017-Aug-18 04:00N 49°26' W 124°18'612.6
2017-Aug-18 03:31N 49°24' W 124°10'612.6
2017-Aug-18 03:00N 49°22' W 124°01'612.4
2017-Aug-18 02:30N 49°20' W 123°51'612.1
2017-Aug-18 02:01N 49°20' W 123°42'612.8
2017-Aug-18 01:31N 49°20' W 123°32'612.6
2017-Aug-18 01:00N 49°19' W 123°23'612.4
2017-Aug-18 00:30N 49°19' W 123°13'5 9.2
2017-Aug-18 00:01N 49°18' W 123°06'1 1.1
2017-Aug-17 23:28N 49°17' W 123°07'0 0.0
2017-Aug-17 22:58N 49°17' W 123°07'0 0.0
2017-Aug-17 22:28N 49°17' W 123°07'0 0.0
2017-Aug-17 21:58N 49°17' W 123°07'0 0.0
2017-Aug-17 21:28N 49°17' W 123°07'0 0.0
2017-Aug-17 20:58N 49°17' W 123°07'0 0.0
2017-Aug-17 20:28N 49°17' W 123°07'0 0.0
2017-Aug-17 19:58N 49°17' W 123°07'0 0.0
2017-Aug-17 19:19N 49°17' W 123°07'0 0.0
2017-Aug-17 18:55N 49°17' W 123°07'0 0.0
2017-Aug-17 18:25N 49°17' W 123°07'0 0.0
2017-Aug-17 17:58N 49°17' W 123°07'0 0.1
2017-Aug-17 17:28N 49°17' W 123°07'0 0.1
2017-Aug-17 16:58N 49°17' W 123°07'0 0.0
2017-Aug-17 16:28N 49°17' W 123°07'0 0.0
2017-Aug-17 15:55N 49°17' W 123°07'0 0.0
2017-Aug-17 15:28N 49°17' W 123°07'0 0.0
2017-Aug-17 14:55N 49°17' W 123°07'0 0.0
2017-Aug-17 14:28N 49°17' W 123°07'0 0.3
2017-Aug-17 14:00N 49°17' W 123°06'2 4.0
2017-Aug-17 13:30N 49°19' W 123°08'510.1
2017-Aug-17 13:00N 49°18' W 123°16'510.6
2017-Aug-17 12:30N 49°19' W 123°24'510.6
2017-Aug-17 12:00N 49°19' W 123°32'510.6
2017-Aug-17 11:30N 49°19' W 123°40'510.5
2017-Aug-17 11:00N 49°19' W 123°49'510.9
2017-Aug-17 10:30N 49°21' W 123°57'510.8
2017-Aug-17 10:00N 49°23' W 124°04'510.5
2017-Aug-17 09:30N 49°24' W 124°12'510.7
2017-Aug-17 09:00N 49°26' W 124°20'510.7
2017-Aug-17 08:30N 49°29' W 124°27'510.9
2017-Aug-17 08:00N 49°33' W 124°32'510.5
2017-Aug-17 07:30N 49°37' W 124°37'510.6
2017-Aug-17 07:00N 49°40' W 124°43'510.5
2017-Aug-17 06:30N 49°45' W 124°46'510.5
2017-Aug-17 06:00N 49°49' W 124°51'510.8
2017-Aug-17 05:30N 49°53' W 124°58'510.7
2017-Aug-17 05:00N 49°56' W 125°05'510.5
2017-Aug-17 04:30N 49°59' W 125°11'510.6
2017-Aug-17 04:00N 50°04' W 125°15'510.5
2017-Aug-17 03:30N 50°07' W 125°21'612.6
2017-Aug-17 03:00N 50°13' W 125°23'714.4
2017-Aug-17 02:30N 50°20' W 125°27'714.4
2017-Aug-17 02:00N 50°22' W 125°38'1314.7
2017-Aug-17 01:07N 50°25' W 125°58'1614.5
2017-Aug-17 00:01N 50°30' W 126°22'415.0
2017-Aug-16 23:47N 50°30' W 126°27'1313.1
2017-Aug-16 22:47N 50°37' W 126°45'414.3
2017-Aug-16 22:29N 50°39' W 126°50'815.4
2017-Aug-16 21:59N 50°43' W 127°01'715.6
2017-Aug-16 21:30N 50°45' W 127°12'815.6
2017-Aug-16 21:00N 50°48' W 127°23'815.7
2017-Aug-16 20:30N 50°52' W 127°34'815.5
2017-Aug-16 20:00N 50°57' W 127°44'713.4
2017-Aug-16 19:31N 51°01' W 127°52'714.3
2017-Aug-16 19:00N 51°05' W 128°02'713.9
2017-Aug-16 18:30N 51°09' W 128°10'713.9
2017-Aug-16 18:00N 51°13' W 128°19'714.0
2017-Aug-16 17:31N 51°18' W 128°28'714.1
2017-Aug-16 17:00N 51°22' W 128°37'714.0
2017-Aug-16 16:30N 51°26' W 128°46'714.0
2017-Aug-16 16:00N 51°30' W 128°56'714.0
2017-Aug-16 15:30N 51°34' W 129°05'816.2
2017-Aug-16 15:00N 51°38' W 129°16'816.1
2017-Aug-16 14:30N 51°43' W 129°27'  
2017-Aug-13 10:00N 58°12' W 135°26'814.9
2017-Aug-13 09:29N 58°16' W 135°38'714.6
2017-Aug-13 09:00N 58°19' W 135°50'714.5
2017-Aug-13 08:31N 58°20' W 136°04'121 4.2
2017-Aug-12 03:27N 59°14' W 139°33'  

Dump ship's entire track history